Piedmont, SC (29673)

2:17 AM EDT on April 23, 2017 (GMT -0400)
Wren School area | | Change Station

Elev 843 ft 34.70 °N, 82.52 °W | Updated 1 second ago

Rain
Rain
62.2 °F
Feels Like 62.2 °F
N
0.0
Wind Variable Wind from SW
Gusts 1.6 mph

Today
High -- | Low -- °F
--% Chance of Precip.
Yesterday
High -- | Low -- °F
Precip. -- in
Pressure 29.92 in
Visibility 10.0 miles
Clouds Overcast 6500 ft
Dew Point 58 °F
Humidity 86%
Rainfall 0.00 in
Snow Depth Not available.
6:48 AM 8:08 PM
Waning Crescent, 14% visible
METAR KGYH 230555Z AUTO 02005KT 10SM RA OVC065 17/13 A2992 RMK AO2
Pressure 29.92 in
Visibility 10.0 miles
Clouds Overcast 6500 ft
Dew Point 58 °F
Humidity 86%
Rainfall 0.00 in
Snow Depth Not available.
6:48 AM 8:08 PM
Waning Crescent, 14% visible
METAR KGYH 230555Z AUTO 02005KT 10SM RA OVC065 17/13 A2992 RMK AO2

Get Severe Weather Alerts

Thanks for signing up!

Be on the lookout for a verification email in your inbox.

You'll start receiving the daily forecast at 8 AM.

×

10-Day Weather Forecast

Almanac

Astronomy

Apr. 23, 2017 Rise Set
Actual Time
Civil Twilight
Nautical Twilight
Astronomical Twilight
Moon
Length of Visible Light
Length of Day
Tomorrow will be .
, % of the Moon is Illuminated

Today's Extremes

State Highs State Lows

Community

WunderPhotos

WunderBlog® & News

Nearby

Air Quality

  Air Quality AQ Index Pollutant
Not available.

Snow Depth

Station Depth Elevation

Earthquake Activity

City Distance Mag. Time & Date
Minimum magnitude displayed is 2.5.

Coastal Water Temperatures

Place Temperature

Stations

Nearby Weather Stations

Station Location Temp. Windchill Dew Point Humidity Wind Precip. Elev Updated Type
                   

Watches & Warnings

There are currently no watches in effect.